« Back
NWS Peachtree City, Ga » Text Product » AHN Terminal Aerodrome Forecast


Printer-friendly Version
Current Version              Previous Versions:   1  2  3  4  5  6  7  8  9  

Terminal Aerodrome Forecast

726
FTUS42 KFFC 251124
TAFAHN
TAF
KAHN 251124Z 2512/2612 25005KT P6SM SKC
     FM251500 22007KT P6SM SCT220
     FM252100 19006KT P6SM SCT120 OVC200
     FM260000 19005KT P6SM SCT045 OVC070
     FM260300 18005KT P6SM OVC040
     FM260600 21004KT P6SM -RA OVC025
     FM260900 24004KT P6SM -RA OVC015=



USA.gov is the U.S. government's official web portal to all federal, state and local government web resources and services.